首页
METAR-TAF:

METAR-TAF

机场 :

Eau Claire, 威斯康辛州, 美国

纬度: 44-51-55N, 经度: 091-29-06W, 海拔: 277米

当前天气观测

该预报发布于21分钟前的20:56 UTC
风速12节,风向西转西北,有时为21节阵风
温度 -8°C
湿度 67%
气压 1010 hPa
能見度: 16.1公里
阴天层高于1900英尺

METAR: KEAU 142056Z 30012G21KT 10SM OVC019 M08/M13 A2983 RMK AO2 SLP118 60000 T10781128 53009

时间: 15:17 (21:17 UTC)

预报

该预报发布于3小时和35分钟前的17:42 UTC
预报有效从14日的 18点(UTC)到 15日的 18点(UTC)
风速10节,风向西转西北
能見度: 9.7公里
阴天层高于1200英尺
小阵雪
从 14日的 2230点(UTC)
风速7节,风向西转西北
能見度: 10公里
天空无云
从 15日的 0700点(UTC)
风速节,风向
能見度: 10公里
天空无云
从 15日的 1600点(UTC)
风速节,风向
能見度: 10公里
散云层高于7000英尺

TAF: KEAU 141742Z 1418/1518 30010KT 6SM -SHSN OVC012 FM142230 30007KT P6SM SKC FM150700 00000KT P6SM SKC FM151600 00000KT P6SM SCT070

超过4000个机场的气象观测和天气预报(METAR&TAF报告)。

可查询的气象台以黄色和红色小点在地图上表示。

将鼠标移到小点上方,可查看气象台名称。

然后点击查看天气观测和预报。

如需切换地图:点击带黑十字的绿色按钮放大地图;点击带横线的绿色按钮缩小地图;或者点击绿色箭头查看邻近地区的地图。


METAR-TAF: